Aeroporto :
LOGIN :

Iscrizione | Disclaimer

   EN    FR    IT 

 










Sommario :    VFR   VFR Marginale   IFR   IFR Intensivo   IFR Molto Intensivo
Visibilità : 
Base nubi : 
>= 8 km
>= 3000ft
5 / 8 km
1000 / 3000 ft
1500m / 5 km
500 / 1000 ft
800 / 1500m
200 / 500 ft
< 800m
< 200 ft
Simboli :   Temporali  Nebbia  Neve Forte  Precipitazioni Forti  Vento > 20 kt
SIGMETs :   Varie  Temporali  Ghiacco  Turbolenza  Onda orograficha  Ceneri Vulcaniche






- Altitudine del aeroporto : 80 ft
- Codice IATA : LPL


EGGP - Liverpool John Lennon

ULTIMO METAR :
  • 220150Z 24027G42KT 9999 -RA SCT020 11/08 Q1005

METARs OBSOLETI :
  • 220120Z 23024G34KT 9999 -RA SCT027 11/08 Q1006
  • 220020Z 23024G34KT 9999 -RA SCT023 12/09 Q1006

TAF TAF EGGP
Valido dal 21 a 18 ore il 22 a 18 ore UTC


211703Z 2118/2218 22015KT 9999 FEW015 SCT025
PROB30
TEMPO 2118/2121 8000 RA
BECMG 2121/2123 24020G32KT
TEMPO 2202/2205 25025G42KT 3000 +SHRA BKN010
TEMPO 2205/2209 25013KT
TEMPO 2205/2218 26020G32KT 6000 SHRA
ATIS : +44 151 907 2000 (option 5 or ext 5150)
Met : +44 871 750 5150



MetMap, La meteo Aeronautica in un colpo d'occhio ! - Copyright ORBIFLY Dicembre 2007 - Disclaimer

ORBIFLY MET'MAP TEAM :

Programmazione e sviluppo : Alexandra Zaïnal
Concezione : Baudouin d'Aumeries
Aiuto per la programmazione : Marc-Olivier Méhu
Supporto tecnico e logistico : Manuel Goepfert
Aiuto per la traduzione : Arnaldo La Scala

Contatto : metmap@orbifly.com




FONTI E CREDITI :

   NOAA